createdAt,value
2018-08-25T00:02:16.986Z,45.90
2018-08-25T00:04:45.447Z,45.90
2018-08-25T00:07:13.810Z,46.20
2018-08-25T00:09:42.227Z,45.90
2018-08-25T00:12:10.669Z,46.00
2018-08-25T00:14:39.176Z,46.40
2018-08-25T00:17:07.529Z,46.60
2018-08-25T00:19:35.955Z,46.80
2018-08-25T00:22:04.395Z,46.90
2018-08-25T00:24:32.890Z,46.90
2018-08-25T00:27:01.258Z,47.20
2018-08-25T00:29:29.679Z,47.20
2018-08-25T00:31:58.064Z,47.10
2018-08-25T00:34:26.539Z,47.30
2018-08-25T00:36:54.862Z,47.30
2018-08-25T00:39:23.347Z,47.70
2018-08-25T00:41:51.718Z,47.60
2018-08-25T00:44:20.195Z,47.50
2018-08-25T00:46:48.583Z,47.40
2018-08-25T00:49:17.884Z,47.40
2018-08-25T00:51:46.281Z,47.40
2018-08-25T00:54:14.727Z,47.50
2018-08-25T00:56:43.102Z,47.60
2018-08-25T00:59:11.639Z,47.60
2018-08-25T01:01:40.077Z,47.60
2018-08-25T01:04:08.563Z,47.60
2018-08-25T01:06:37.038Z,47.60
2018-08-25T01:09:07.447Z,47.70
2018-08-25T01:11:35.946Z,47.80
2018-08-25T01:14:04.398Z,48.00
2018-08-25T01:16:32.727Z,48.10
2018-08-25T01:19:01.303Z,48.00
2018-08-25T01:21:29.680Z,47.90
2018-08-25T01:23:58.115Z,48.20
2018-08-25T01:26:26.495Z,48.20
2018-08-25T01:28:55.003Z,48.40
2018-08-25T01:31:26.822Z,48.60
2018-08-25T01:33:55.556Z,48.90
2018-08-25T01:36:23.950Z,49.20
2018-08-25T01:38:52.296Z,49.30
2018-08-25T01:41:20.671Z,49.40
2018-08-25T01:43:49.024Z,49.40
2018-08-25T01:46:17.383Z,49.40
2018-08-25T01:48:45.740Z,49.60
2018-08-25T01:51:14.124Z,49.60
2018-08-25T01:53:42.539Z,49.80
2018-08-25T01:56:10.957Z,49.80
2018-08-25T01:58:39.428Z,49.70
2018-08-25T02:01:07.804Z,49.70
2018-08-25T02:03:36.183Z,49.70
2018-08-25T02:06:04.605Z,49.70
2018-08-25T02:08:32.960Z,49.60
2018-08-25T02:11:01.963Z,49.50
2018-08-25T02:13:30.323Z,49.70
2018-08-25T02:15:58.692Z,49.70
2018-08-25T02:18:27.072Z,49.70
2018-08-25T02:20:55.416Z,49.70
2018-08-25T02:23:23.819Z,49.80
2018-08-25T02:25:52.270Z,49.80
2018-08-25T02:28:20.683Z,49.70
2018-08-25T02:30:48.974Z,49.60
2018-08-25T02:33:17.306Z,49.60
2018-08-25T02:35:45.726Z,49.60
2018-08-25T02:38:14.192Z,49.50
2018-08-25T02:40:42.674Z,49.30
2018-08-25T02:43:11.154Z,49.30
2018-08-25T02:45:39.572Z,49.30
2018-08-25T02:48:07.930Z,49.50
2018-08-25T02:50:36.325Z,49.60
2018-08-25T02:53:04.722Z,49.40
2018-08-25T02:55:33.125Z,49.60
2018-08-25T02:58:01.475Z,49.70
2018-08-25T03:00:29.834Z,49.80
2018-08-25T03:02:58.230Z,50.10
2018-08-25T03:05:26.594Z,50.10
2018-08-25T03:07:54.986Z,50.10
2018-08-25T03:10:23.572Z,50.20
2018-08-25T03:12:52.035Z,50.30
2018-08-25T03:15:20.417Z,50.50
2018-08-25T03:17:48.771Z,50.50
2018-08-25T03:20:17.158Z,50.60
2018-08-25T03:22:45.601Z,51.00
2018-08-25T03:25:13.959Z,51.10
2018-08-25T03:27:42.474Z,50.90
2018-08-25T03:30:10.888Z,50.60
2018-08-25T03:32:39.302Z,50.80
2018-08-25T03:35:07.774Z,52.20
2018-08-25T03:37:36.251Z,53.20
2018-08-25T03:40:04.703Z,54.60
2018-08-25T03:42:33.138Z,56.00
2018-08-25T03:45:01.607Z,57.10
2018-08-25T03:47:30.027Z,57.90
2018-08-25T03:49:58.464Z,58.70
2018-08-25T03:52:26.905Z,61.40
2018-08-25T03:54:55.347Z,59.60
2018-08-25T03:57:23.763Z,61.10
2018-08-25T03:59:52.208Z,61.90
2018-08-25T04:02:20.685Z,63.30
2018-08-25T04:04:49.013Z,63.50
2018-08-25T04:07:17.579Z,64.10
2018-08-25T04:09:45.972Z,64.60
2018-08-25T04:12:14.478Z,64.60
2018-08-25T04:14:42.900Z,65.00
2018-08-25T04:17:11.364Z,65.90
2018-08-25T04:19:39.821Z,66.40
2018-08-25T04:22:08.467Z,66.60
2018-08-25T04:24:37.149Z,67.70
2018-08-25T04:27:05.577Z,67.80
2018-08-25T04:29:34.046Z,68.20
2018-08-25T04:32:02.589Z,68.40
2018-08-25T04:34:30.999Z,69.40
2018-08-25T04:36:59.458Z,69.20
2018-08-25T04:39:27.834Z,69.50
2018-08-25T04:41:56.435Z,69.80
2018-08-25T04:44:24.799Z,70.40
2018-08-25T04:46:53.298Z,70.90
2018-08-25T04:49:21.771Z,71.20
2018-08-25T04:51:50.237Z,71.60
2018-08-25T04:54:18.634Z,71.10
2018-08-25T04:56:47.310Z,71.20
2018-08-25T04:59:15.647Z,72.60
2018-08-25T05:01:44.160Z,71.40
2018-08-25T05:04:12.493Z,71.80
2018-08-25T05:06:40.974Z,71.30
2018-08-25T05:09:10.495Z,71.50
2018-08-25T05:11:39.195Z,71.60
2018-08-25T05:14:07.559Z,72.10
2018-08-25T05:16:36.076Z,72.10
2018-08-25T05:19:04.478Z,72.10
2018-08-25T05:21:32.973Z,72.80
2018-08-25T05:24:01.529Z,73.50
2018-08-25T05:26:30.230Z,74.00
2018-08-25T05:28:58.695Z,73.60
2018-08-25T05:31:27.403Z,73.70
2018-08-25T05:33:55.903Z,73.20
2018-08-25T05:36:24.381Z,73.40
2018-08-25T05:38:52.747Z,73.50
2018-08-25T05:41:21.343Z,73.60
2018-08-25T05:43:49.665Z,73.50
2018-08-25T05:46:18.700Z,73.70
2018-08-25T05:48:47.192Z,74.00
2018-08-25T05:51:15.753Z,74.00
2018-08-25T05:53:44.169Z,74.00
2018-08-25T05:56:12.838Z,74.30
2018-08-25T05:58:41.225Z,73.70
2018-08-25T06:01:09.750Z,74.30
2018-08-25T06:03:38.155Z,74.50
2018-08-25T06:06:06.628Z,74.50
2018-08-25T06:08:35.022Z,74.60
2018-08-25T06:11:03.551Z,73.90
2018-08-25T06:13:31.964Z,73.80
2018-08-25T06:16:00.500Z,73.40
2018-08-25T06:18:28.874Z,73.10
2018-08-25T06:20:57.278Z,73.60
2018-08-25T06:23:25.641Z,74.10
2018-08-25T06:25:54.163Z,73.50
2018-08-25T06:28:22.504Z,72.70
2018-08-25T06:30:50.983Z,72.70
2018-08-25T06:33:19.428Z,72.90
2018-08-25T06:35:47.965Z,72.90
2018-08-25T06:38:16.347Z,73.40
2018-08-25T06:40:44.899Z,74.40
2018-08-25T06:43:13.242Z,73.40
2018-08-25T06:45:41.729Z,72.50
2018-08-25T06:48:10.055Z,73.30
2018-08-25T06:50:38.668Z,71.50
2018-08-25T06:53:07.121Z,71.20
2018-08-25T06:55:35.513Z,71.60
2018-08-25T06:58:04.029Z,71.40
2018-08-25T07:00:33.108Z,70.60
2018-08-25T07:03:01.497Z,70.60
2018-08-25T07:05:30.104Z,71.10
2018-08-25T07:07:58.476Z,68.70
2018-08-25T07:10:27.353Z,68.30
2018-08-25T07:12:55.810Z,69.40
2018-08-25T07:15:24.429Z,70.20
2018-08-25T07:17:52.860Z,70.30
2018-08-25T07:20:21.492Z,70.50
2018-08-25T07:22:49.873Z,70.50
2018-08-25T07:25:18.430Z,69.60
2018-08-25T07:27:46.838Z,69.30
2018-08-25T07:30:15.399Z,69.30
2018-08-25T07:32:43.929Z,69.10
2018-08-25T07:35:12.474Z,68.50
2018-08-25T07:37:40.843Z,68.90
2018-08-25T07:40:09.324Z,67.20
2018-08-25T07:42:37.715Z,67.00
2018-08-25T07:45:06.767Z,66.40
2018-08-25T07:47:35.198Z,66.80
2018-08-25T07:50:03.775Z,67.40
2018-08-25T07:52:32.239Z,67.00
2018-08-25T07:55:00.702Z,67.70
2018-08-25T07:57:29.124Z,67.00
2018-08-25T07:59:57.683Z,66.90
2018-08-25T08:02:26.045Z,67.70
2018-08-25T08:04:54.553Z,68.70
2018-08-25T08:07:23.044Z,69.70
2018-08-25T08:09:51.507Z,70.50
2018-08-25T08:12:19.985Z,69.30
2018-08-25T08:14:48.378Z,70.70
2018-08-25T08:17:16.762Z,70.10
2018-08-25T08:19:45.200Z,70.20
2018-08-25T08:22:13.630Z,70.60
2018-08-25T08:24:42.177Z,69.70
2018-08-25T08:27:10.555Z,69.20
2018-08-25T08:29:39.042Z,68.70
2018-08-25T08:32:08.728Z,68.50
2018-08-25T08:34:37.637Z,70.00
2018-08-25T08:37:06.630Z,71.20
2018-08-25T08:39:35.137Z,71.20
2018-08-25T08:42:03.590Z,70.90
2018-08-25T08:44:31.983Z,71.90
2018-08-25T08:47:00.542Z,71.60
2018-08-25T08:49:28.935Z,70.60
2018-08-25T08:51:57.383Z,70.60
2018-08-25T08:54:25.768Z,71.70
2018-08-25T08:56:54.143Z,70.30
2018-08-25T08:59:22.504Z,71.30
2018-08-25T09:01:50.975Z,71.50
2018-08-25T09:04:19.401Z,71.90
2018-08-25T09:06:47.933Z,71.80
2018-08-25T09:09:16.324Z,72.50
2018-08-25T09:11:44.741Z,73.10
2018-08-25T09:14:13.135Z,72.10
2018-08-25T09:16:41.509Z,72.40
2018-08-25T09:19:09.976Z,72.20
2018-08-25T09:21:38.305Z,70.40
2018-08-25T09:24:06.891Z,70.70
2018-08-25T09:26:35.357Z,69.60
2018-08-25T09:29:04.004Z,69.60
2018-08-25T09:31:32.384Z,70.10
2018-08-25T09:34:00.894Z,71.20
2018-08-25T09:36:29.419Z,71.10
2018-08-25T09:38:57.843Z,70.20
2018-08-25T09:41:26.218Z,69.70
2018-08-25T09:43:54.691Z,70.40
2018-08-25T09:46:23.073Z,69.90
2018-08-25T09:48:51.594Z,71.10
2018-08-25T09:51:19.928Z,70.70
2018-08-25T09:53:49.081Z,71.50
2018-08-25T09:56:17.502Z,70.90
2018-08-25T09:58:46.016Z,69.50
2018-08-25T10:01:19.651Z,70.10
2018-08-25T10:03:48.044Z,65.80
2018-08-25T10:06:16.524Z,65.20
2018-08-25T10:08:45.041Z,64.20
2018-08-25T10:11:13.384Z,65.00
2018-08-25T10:13:41.882Z,64.10
2018-08-25T10:16:10.240Z,61.50
2018-08-25T10:18:38.671Z,62.20
2018-08-25T10:21:07.456Z,62.30
2018-08-25T10:23:35.817Z,63.90
2018-08-25T10:26:04.278Z,63.20
2018-08-25T10:28:32.756Z,60.50
2018-08-25T10:31:02.094Z,59.80
2018-08-25T10:33:30.434Z,59.50
2018-08-25T10:35:58.789Z,58.90
2018-08-25T10:38:27.315Z,58.40
2018-08-25T10:40:55.814Z,57.00
2018-08-25T10:43:24.215Z,56.80
2018-08-25T10:45:52.575Z,56.90
2018-08-25T10:48:21.052Z,57.20
2018-08-25T10:50:49.401Z,58.00
2018-08-25T10:53:17.791Z,57.00
2018-08-25T10:55:46.143Z,56.40
2018-08-25T10:58:14.623Z,58.20
2018-08-25T11:00:43.123Z,56.60
2018-08-25T11:03:11.395Z,55.70
2018-08-25T11:05:39.750Z,56.10
2018-08-25T11:08:08.114Z,56.40
2018-08-25T11:10:36.456Z,57.10
2018-08-25T11:13:04.862Z,56.00
2018-08-25T11:15:33.282Z,53.30
2018-08-25T11:18:01.671Z,52.80
2018-08-25T11:20:30.128Z,53.60
2018-08-25T11:22:58.529Z,53.30
2018-08-25T11:25:26.883Z,53.20
2018-08-25T11:27:55.304Z,52.30
2018-08-25T11:30:23.691Z,53.30
2018-08-25T11:32:52.124Z,52.60
2018-08-25T11:35:20.467Z,51.40
2018-08-25T11:37:49.005Z,49.70
2018-08-25T11:40:17.362Z,49.70
2018-08-25T11:42:45.855Z,47.70
2018-08-25T11:45:14.219Z,47.90
2018-08-25T11:47:42.764Z,46.20
2018-08-25T11:50:11.186Z,45.80
2018-08-25T11:52:39.590Z,46.20
2018-08-25T11:55:07.982Z,46.30
2018-08-25T11:57:37.116Z,45.40
2018-08-25T12:00:06.793Z,45.20
2018-08-25T12:02:35.232Z,44.80
2018-08-25T12:05:03.707Z,44.70
2018-08-25T12:07:32.080Z,45.40
2018-08-25T12:10:00.454Z,44.60
2018-08-25T12:12:28.848Z,45.80
2018-08-25T12:14:57.275Z,46.20
2018-08-25T12:17:25.720Z,44.50
2018-08-25T12:19:54.184Z,44.10
2018-08-25T12:22:22.611Z,44.20
2018-08-25T12:24:51.030Z,44.60
2018-08-25T12:27:19.469Z,44.80
2018-08-25T12:29:47.892Z,44.70
2018-08-25T12:32:16.373Z,45.70
2018-08-25T12:34:44.755Z,43.80
2018-08-25T12:37:13.166Z,45.40
2018-08-25T12:39:42.120Z,43.20
2018-08-25T12:42:10.503Z,42.60
2018-08-25T12:44:39.005Z,42.70
2018-08-25T12:47:07.421Z,42.50
2018-08-25T12:49:35.792Z,42.50
2018-08-25T12:52:04.181Z,43.30
2018-08-25T12:54:32.535Z,44.10
2018-08-25T12:57:01.075Z,45.50
2018-08-25T12:59:29.492Z,45.40
2018-08-25T13:01:57.897Z,45.70
2018-08-25T13:04:26.343Z,45.30
2018-08-25T13:06:54.828Z,45.10
2018-08-25T13:09:23.215Z,44.80
2018-08-25T13:11:51.670Z,43.40
2018-08-25T13:14:20.129Z,42.30
2018-08-25T13:16:48.612Z,43.20
2018-08-25T13:19:17.096Z,43.60
2018-08-25T13:21:45.566Z,44.40
2018-08-25T13:24:14.182Z,45.10
2018-08-25T13:26:42.602Z,44.50
2018-08-25T13:29:11.010Z,44.90
2018-08-25T13:31:39.530Z,44.10
2018-08-25T13:34:07.974Z,44.50
2018-08-25T13:36:36.389Z,44.80
2018-08-25T13:39:08.013Z,45.50
2018-08-25T13:41:36.916Z,48.40
2018-08-25T13:44:05.648Z,54.30
2018-08-25T13:46:34.112Z,57.20
2018-08-25T13:49:02.881Z,59.40
2018-08-25T13:51:31.295Z,60.30
2018-08-25T13:53:59.721Z,58.50
2018-08-25T13:56:28.700Z,61.20
2018-08-25T13:58:57.113Z,59.40
2018-08-25T14:01:25.522Z,61.30
2018-08-25T14:03:53.903Z,62.70
2018-08-25T14:06:22.297Z,62.90
2018-08-25T14:08:50.749Z,64.60
2018-08-25T14:11:19.222Z,64.10
2018-08-25T14:13:47.682Z,64.60
2018-08-25T14:16:16.340Z,64.20
2018-08-25T14:18:44.658Z,63.50
2018-08-25T14:21:13.032Z,63.50
2018-08-25T14:23:41.462Z,64.60
2018-08-25T14:26:10.091Z,65.30
2018-08-25T14:28:38.567Z,64.40
2018-08-25T14:31:07.060Z,65.30
2018-08-25T14:33:35.477Z,66.20
2018-08-25T14:36:03.928Z,66.10
2018-08-25T14:38:32.297Z,63.30
2018-08-25T14:41:00.746Z,64.50
2018-08-25T14:43:29.158Z,64.30
2018-08-25T14:45:57.677Z,64.00
2018-08-25T14:48:26.188Z,64.00
2018-08-25T14:50:54.656Z,63.90
2018-08-25T14:53:23.062Z,63.50
2018-08-25T14:55:51.485Z,61.30
2018-08-25T14:58:19.898Z,62.80
2018-08-25T15:00:48.308Z,60.30
2018-08-25T15:03:17.051Z,61.10
2018-08-25T15:05:45.442Z,62.00
2018-08-25T15:08:13.843Z,61.40
2018-08-25T15:10:42.270Z,60.80
2018-08-25T15:13:10.737Z,59.50
2018-08-25T15:15:39.059Z,61.50
2018-08-25T15:18:07.507Z,62.20
2018-08-25T15:20:36.121Z,62.90
2018-08-25T15:23:04.730Z,60.20
2018-08-25T15:25:33.098Z,59.00
2018-08-25T15:28:01.558Z,59.00
2018-08-25T15:30:29.939Z,61.00
2018-08-25T15:32:58.357Z,59.20
2018-08-25T15:35:26.808Z,60.70
2018-08-25T15:37:55.203Z,60.20
2018-08-25T15:40:23.558Z,60.20
2018-08-25T15:42:52.064Z,58.80
2018-08-25T15:45:20.417Z,58.20
2018-08-25T15:47:48.804Z,57.50
2018-08-25T15:50:18.449Z,57.90
2018-08-25T15:52:46.884Z,56.70
2018-08-25T15:55:15.457Z,57.20
2018-08-25T15:57:43.860Z,58.20
2018-08-25T16:00:12.443Z,58.20
2018-08-25T16:02:40.858Z,55.40
2018-08-25T16:05:09.312Z,55.60
2018-08-25T16:07:37.860Z,56.10
2018-08-25T16:10:06.833Z,56.90
2018-08-25T16:12:35.408Z,56.80
2018-08-25T16:15:03.923Z,57.20
2018-08-25T16:17:32.370Z,56.40
2018-08-25T16:20:00.994Z,57.70
2018-08-25T16:22:29.510Z,56.90
2018-08-25T16:24:58.312Z,56.90
2018-08-25T16:27:27.123Z,55.60
2018-08-25T16:29:55.541Z,54.50
2018-08-25T16:32:23.933Z,55.30
2018-08-25T16:34:52.403Z,54.90
2018-08-25T16:37:20.766Z,56.30
2018-08-25T16:39:49.361Z,57.20
2018-08-25T16:42:17.787Z,57.40
2018-08-25T16:44:46.452Z,58.90
2018-08-25T16:47:14.935Z,59.50
2018-08-25T16:49:43.299Z,61.20
2018-08-25T16:52:12.339Z,62.60
2018-08-25T16:54:41.918Z,62.50
2018-08-25T16:57:10.448Z,64.10
2018-08-25T16:59:39.368Z,63.70
2018-08-25T17:02:07.943Z,64.40
2018-08-25T17:04:36.252Z,62.90
2018-08-25T17:07:04.914Z,65.00
2018-08-25T17:09:33.430Z,65.30
2018-08-25T17:12:32.679Z,65.50
2018-08-25T17:15:01.184Z,63.70
2018-08-25T17:17:29.668Z,61.60
2018-08-25T17:19:58.046Z,62.50
2018-08-25T17:22:26.706Z,61.30
2018-08-25T17:24:55.182Z,61.00
2018-08-25T17:27:23.705Z,61.80
2018-08-25T17:29:52.072Z,62.10
2018-08-25T17:32:20.528Z,62.80
2018-08-25T17:34:48.928Z,62.40
2018-08-25T17:37:17.447Z,62.10
2018-08-25T17:39:45.868Z,63.00
2018-08-25T17:42:14.525Z,62.60
2018-08-25T17:44:42.920Z,62.50
2018-08-25T17:47:11.488Z,64.00
2018-08-25T17:49:39.888Z,62.80
2018-08-25T17:52:08.574Z,64.10
2018-08-25T17:54:37.227Z,64.00
2018-08-25T17:57:05.822Z,63.10
2018-08-25T17:59:34.404Z,63.90
2018-08-25T18:02:02.945Z,64.50
2018-08-25T18:04:31.475Z,64.40
2018-08-25T18:07:00.287Z,65.10
2018-08-25T18:09:28.865Z,64.70
2018-08-25T18:11:57.325Z,65.10
2018-08-25T18:14:25.769Z,65.80
2018-08-25T18:16:54.375Z,64.90
2018-08-25T18:19:22.934Z,64.00
2018-08-25T18:21:51.707Z,64.40
2018-08-25T18:24:20.399Z,63.50
2018-08-25T18:26:49.324Z,63.40
2018-08-25T18:29:18.118Z,64.10
2018-08-25T18:31:47.007Z,63.40
2018-08-25T18:34:15.714Z,63.20
2018-08-25T18:36:44.565Z,63.40
2018-08-25T18:39:14.527Z,62.90
2018-08-25T18:41:43.733Z,63.50
2018-08-25T18:44:12.749Z,64.20
2018-08-25T18:46:41.579Z,64.30
2018-08-25T18:49:09.946Z,64.20
2018-08-25T18:51:38.688Z,62.60
2018-08-25T18:54:07.689Z,61.70
2018-08-25T18:56:38.008Z,62.40
2018-08-25T18:59:07.619Z,62.90
2018-08-25T19:01:36.490Z,62.90
2018-08-25T19:04:06.566Z,62.70
2018-08-25T19:06:36.313Z,63.10
2018-08-25T19:09:06.634Z,63.20
2018-08-25T19:11:36.104Z,62.60
2018-08-25T19:14:05.260Z,62.90
2018-08-25T19:16:34.670Z,63.10
2018-08-25T19:19:03.175Z,63.60
2018-08-25T19:21:31.983Z,63.90
2018-08-25T19:24:00.805Z,63.80
2018-08-25T19:26:30.283Z,64.40
2018-08-25T19:28:58.990Z,65.20
2018-08-25T19:31:27.748Z,65.10
2018-08-25T19:33:56.589Z,64.90
2018-08-25T19:36:25.307Z,65.10
2018-08-25T19:38:54.078Z,65.10
2018-08-25T19:41:22.988Z,64.40
2018-08-25T19:43:51.664Z,64.60
2018-08-25T19:46:20.404Z,64.30
2018-08-25T19:48:49.185Z,64.80
2018-08-25T19:51:17.886Z,65.50
2018-08-25T19:53:46.511Z,65.90
2018-08-25T19:56:15.218Z,66.20
2018-08-25T19:58:44.092Z,65.30
2018-08-25T20:01:12.616Z,65.80
2018-08-25T20:03:41.304Z,65.50
2018-08-25T20:06:09.827Z,64.90
2018-08-25T20:08:38.442Z,64.70
2018-08-25T20:11:07.175Z,65.20
2018-08-25T20:13:35.911Z,65.00
2018-08-25T20:16:04.443Z,65.30
2018-08-25T20:18:32.982Z,65.70
2018-08-25T20:21:01.834Z,65.40
2018-08-25T20:23:30.638Z,65.00
2018-08-25T20:25:59.146Z,65.10
2018-08-25T20:28:27.488Z,65.10
2018-08-25T20:30:55.956Z,65.30
2018-08-25T20:33:24.363Z,65.40
2018-08-25T20:35:53.137Z,65.00
2018-08-25T20:38:21.533Z,65.40
2018-08-25T20:40:50.028Z,65.40
2018-08-25T20:43:18.418Z,66.10
2018-08-25T20:45:47.138Z,66.30
2018-08-25T20:48:15.651Z,66.00
2018-08-25T20:50:44.131Z,66.20
2018-08-25T20:53:12.535Z,66.40
2018-08-25T20:55:41.127Z,65.90
2018-08-25T20:58:09.521Z,66.20
2018-08-25T21:00:38.155Z,66.40
2018-08-25T21:03:06.554Z,66.40
2018-08-25T21:05:35.049Z,65.40
2018-08-25T21:08:03.492Z,65.70
2018-08-25T21:10:32.175Z,66.10
2018-08-25T21:13:00.658Z,65.70
2018-08-25T21:15:29.092Z,65.50
2018-08-25T21:17:57.486Z,65.70
2018-08-25T21:20:26.378Z,65.70
2018-08-25T21:22:54.883Z,65.80
2018-08-25T21:25:23.493Z,65.70
2018-08-25T21:27:51.892Z,65.30
2018-08-25T21:30:20.301Z,65.10
2018-08-25T21:32:48.651Z,65.30
2018-08-25T21:35:17.123Z,65.20
2018-08-25T21:37:46.111Z,64.90
2018-08-25T21:40:14.611Z,65.10
2018-08-25T21:42:43.016Z,65.40
2018-08-25T21:45:11.460Z,65.70
2018-08-25T21:47:39.862Z,65.30
2018-08-25T21:50:08.413Z,65.20
2018-08-25T21:52:36.860Z,65.20
2018-08-25T21:55:05.340Z,65.70
2018-08-25T21:57:33.722Z,65.40
2018-08-25T22:00:02.260Z,65.50
2018-08-25T22:02:31.118Z,65.60
2018-08-25T22:04:59.883Z,65.90
2018-08-25T22:07:28.271Z,66.30
2018-08-25T22:09:56.732Z,66.10
2018-08-25T22:12:25.172Z,66.20
2018-08-25T22:14:53.630Z,66.30
2018-08-25T22:17:22.004Z,65.90
2018-08-25T22:19:50.460Z,66.10
2018-08-25T22:22:18.883Z,66.40
2018-08-25T22:24:47.442Z,66.40
2018-08-25T22:27:15.949Z,66.10
2018-08-25T22:29:44.445Z,66.00
2018-08-25T22:32:12.854Z,65.80
2018-08-25T22:34:41.299Z,65.90
2018-08-25T22:37:10.650Z,66.00
2018-08-25T22:39:39.132Z,65.70
2018-08-25T22:42:07.664Z,66.00
2018-08-25T22:44:36.256Z,66.30
2018-08-25T22:47:04.768Z,66.60
2018-08-25T22:49:33.279Z,66.60
2018-08-25T22:52:01.852Z,66.80
2018-08-25T22:54:30.384Z,67.10
2018-08-25T22:56:58.784Z,67.10
2018-08-25T22:59:27.177Z,67.00
2018-08-25T23:01:55.586Z,66.80
2018-08-25T23:04:24.152Z,67.10
2018-08-25T23:06:52.563Z,66.70
2018-08-25T23:09:21.059Z,66.90
2018-08-25T23:11:49.472Z,66.60
2018-08-25T23:14:17.920Z,66.50
2018-08-25T23:16:46.326Z,66.50
2018-08-25T23:19:14.712Z,67.00
2018-08-25T23:21:43.097Z,66.90
2018-08-25T23:24:11.566Z,67.10
2018-08-25T23:26:40.037Z,67.30
2018-08-25T23:29:08.460Z,67.40
2018-08-25T23:31:36.803Z,67.70
2018-08-25T23:34:05.259Z,67.40
2018-08-25T23:36:33.683Z,67.50
2018-08-25T23:39:02.360Z,68.00
2018-08-25T23:41:30.799Z,68.10
2018-08-25T23:43:59.243Z,68.00
2018-08-25T23:46:27.658Z,68.20
2018-08-25T23:48:56.225Z,68.30
2018-08-25T23:51:24.547Z,68.60
2018-08-25T23:53:52.986Z,68.50
2018-08-25T23:56:21.395Z,68.80
2018-08-25T23:58:49.813Z,68.70
